Time;durP1;ratioP1;P1;durP2;ratioP2;P2;SDS_P1;SDS_P2;PMS_P1;PMS_P2;Temp;Humidity;BMP_temperature;BMP_pressure;BME280_temperature;BME280_humidity;BME280_pressure;Samples;Min_cycle;Max_cycle;Signal;HPM_P1;HPM_P2
2022/09/23 00:00:49;;;;;;;7.07;2.42;;;12.20;99.90;;;;;;5102361;27;20079;-80
2022/09/23 00:03:16;;;;;;;6.22;2.65;;;12.20;99.90;;;;;;5132819;27;20508;-79
2022/09/23 00:05:43;;;;;;;5.68;2.08;;;12.30;99.90;;;;;;5124449;27;20065;-80
2022/09/23 00:08:11;;;;;;;4.72;2.15;;;12.30;99.90;;;;;;5112403;28;20035;-79
2022/09/23 00:10:40;;;;;;;5.88;2.25;;;12.30;99.90;;;;;;5113429;27;20046;-79
2022/09/23 00:13:07;;;;;;;6.57;2.40;;;12.30;99.90;;;;;;5112196;28;20071;-80
2022/09/23 00:15:38;;;;;;;4.57;2.28;;;12.30;99.90;;;;;;5115904;27;20043;-79
2022/09/23 00:18:06;;;;;;;3.70;1.90;;;12.30;99.90;;;;;;5132594;27;20039;-79
2022/09/23 00:20:35;;;;;;;3.88;2.00;;;12.30;99.90;;;;;;5126655;27;20027;-79
2022/09/23 00:23:02;;;;;;;4.68;2.10;;;12.30;99.90;;;;;;5123265;27;20080;-79
2022/09/23 00:25:29;;;;;;;4.82;2.28;;;12.40;99.90;;;;;;5111049;28;20036;-79
2022/09/23 00:27:58;;;;;;;4.47;2.38;;;12.40;99.90;;;;;;5111952;28;20047;-80
2022/09/23 00:30:26;;;;;;;7.30;2.40;;;12.40;99.90;;;;;;5127670;27;20066;-79
2022/09/23 00:32:52;;;;;;;5.15;2.10;;;12.40;99.90;;;;;;5132239;27;20120;-80
2022/09/23 00:35:19;;;;;;;6.03;2.08;;;12.40;99.90;;;;;;5116392;27;20080;-79
2022/09/23 00:37:46;;;;;;;3.65;2.13;;;12.40;99.90;;;;;;5111261;28;20450;-79
2022/09/23 00:40:13;;;;;;;6.15;2.30;;;12.50;99.90;;;;;;5124584;27;20045;-79
2022/09/23 00:42:46;;;;;;;4.82;2.17;;;12.50;99.90;;;;;;5113540;27;20435;-79
2022/09/23 00:45:15;;;;;;;6.32;2.15;;;12.60;99.90;;;;;;5099614;28;20100;-79
2022/09/23 00:47:46;;;;;;;5.30;2.10;;;12.60;99.90;;;;;;5131635;27;20054;-79
2022/09/23 00:50:19;;;;;;;7.43;2.55;;;12.60;99.90;;;;;;5118732;27;20047;-80
2022/09/23 00:52:46;;;;;;;6.93;2.30;;;12.60;99.90;;;;;;5093186;28;20111;-79
2022/09/23 00:55:16;;;;;;;5.30;2.10;;;12.60;99.90;;;;;;5121948;27;20040;-79
2022/09/23 00:57:44;;;;;;;4.90;2.20;;;12.60;99.90;;;;;;5131766;27;20051;-79
2022/09/23 01:00:12;;;;;;;4.78;2.05;;;12.70;99.90;;;;;;5120726;27;20047;-79
2022/09/23 01:02:40;;;;;;;3.92;1.80;;;12.60;99.90;;;;;;5111174;28;20096;-80
2022/09/23 01:05:08;;;;;;;4.35;1.95;;;12.60;99.90;;;;;;5119708;27;20521;-79
2022/09/23 01:07:35;;;;;;;3.85;1.98;;;12.60;99.90;;;;;;5112939;27;20035;-79
2022/09/23 01:10:03;;;;;;;4.20;2.10;;;12.60;99.90;;;;;;5122919;27;20122;-79
2022/09/23 01:12:42;;;;;;;4.00;1.83;;;12.60;99.90;;;;;;5110884;28;20063;-79
2022/09/23 01:15:15;;;;;;;6.07;2.00;;;12.60;99.90;;;;;;5118644;27;20054;-79
2022/09/23 01:17:49;;;;;;;8.00;2.40;;;12.60;99.90;;;;;;5112821;27;20047;-79
2022/09/23 01:20:40;;;;;;;5.10;2.05;;;12.60;99.90;;;;;;5122035;27;20046;-79
2022/09/23 01:23:17;;;;;;;4.55;2.35;;;12.60;99.90;;;;;;5103375;28;20055;-79
2022/09/23 01:26:06;;;;;;;6.28;2.22;;;12.60;99.90;;;;;;5122397;27;20046;-79
2022/09/23 01:28:57;;;;;;;5.47;2.30;;;12.60;99.90;;;;;;5131254;27;20039;-79
2022/09/23 01:31:30;;;;;;;4.07;2.10;;;12.60;99.90;;;;;;5113440;27;20543;-80
2022/09/23 01:34:01;;;;;;;8.23;1.92;;;12.70;99.90;;;;;;5111752;27;20043;-79
2022/09/23 01:36:32;;;;;;;4.60;1.90;;;12.70;99.90;;;;;;5109817;28;20035;-79
2022/09/23 01:39:02;;;;;;;6.70;2.20;;;12.70;99.90;;;;;;5124512;27;20047;-79
2022/09/23 01:41:45;;;;;;;4.60;2.08;;;12.80;99.90;;;;;;5131132;27;20914;-79
2022/09/23 01:44:17;;;;;;;4.18;2.08;;;12.70;99.90;;;;;;5114941;27;20043;-79
2022/09/23 01:46:49;;;;;;;5.30;2.40;;;12.90;99.90;;;;;;5110153;28;20039;-79
2022/09/23 01:49:19;;;;;;;6.05;2.20;;;12.70;99.90;;;;;;5125660;27;20068;-79
2022/09/23 01:51:49;;;;;;;4.63;1.83;;;12.80;99.90;;;;;;5116734;27;20039;-79
2022/09/23 01:54:23;;;;;;;4.82;2.33;;;12.80;99.90;;;;;;5110072;28;20047;-79
2022/09/23 01:56:52;;;;;;;6.13;2.30;;;12.80;99.90;;;;;;5123664;27;20042;-79
2022/09/23 01:59:22;;;;;;;4.63;2.08;;;12.80;99.90;;;;;;5130666;27;20059;-79
2022/09/23 02:01:54;;;;;;;6.07;2.28;;;12.80;99.90;;;;;;5117344;27;20051;-80
2022/09/23 02:04:24;;;;;;;4.53;2.22;;;12.90;99.90;;;;;;5122086;27;20051;-79
2022/09/23 02:06:54;;;;;;;4.90;2.30;;;12.90;99.90;;;;;;5130749;27;20044;-79
2022/09/23 02:09:24;;;;;;;4.78;2.25;;;12.90;99.90;;;;;;5118490;27;20392;-79
2022/09/23 02:11:53;;;;;;;6.20;2.03;;;12.90;99.90;;;;;;5121600;27;20140;-79
2022/09/23 02:14:22;;;;;;;5.10;2.20;;;12.90;99.90;;;;;;5129898;27;20113;-80
2022/09/23 02:16:52;;;;;;;6.63;2.40;;;13.00;99.90;;;;;;5128664;27;20057;-79
2022/09/23 02:19:22;;;;;;;4.80;2.28;;;13.00;99.90;;;;;;5130639;27;20708;-79
2022/09/23 02:21:53;;;;;;;4.95;2.50;;;13.00;99.90;;;;;;5106931;28;20100;-79
2022/09/23 02:24:24;;;;;;;5.13;2.35;;;13.00;99.90;;;;;;5129949;28;20042;-79
2022/09/23 02:26:54;;;;;;;4.57;2.13;;;13.00;99.90;;;;;;5116501;28;20048;-79
2022/09/23 02:29:25;;;;;;;5.75;2.17;;;13.10;99.90;;;;;;5109747;28;20044;-79
2022/09/23 02:32:02;;;;;;;4.32;2.30;;;13.10;99.90;;;;;;5104205;28;20050;-80
2022/09/23 02:34:38;;;;;;;5.45;2.00;;;13.00;99.90;;;;;;5129701;28;20051;-79
2022/09/23 02:37:20;;;;;;;9.38;2.17;;;13.10;99.90;;;;;;5115761;28;20046;-79
2022/09/23 02:39:55;;;;;;;4.43;1.90;;;13.10;99.90;;;;;;5109773;28;20423;-79
2022/09/23 02:42:25;;;;;;;6.13;2.13;;;13.10;99.90;;;;;;5118838;22;20063;-81
2022/09/23 02:44:52;;;;;;;6.03;2.40;;;13.10;99.90;;;;;;5090746;28;20043;-81
2022/09/23 02:47:24;;;;;;;5.47;2.10;;;13.10;99.90;;;;;;5103239;28;20464;-79
2022/09/23 02:49:52;;;;;;;5.07;1.90;;;13.10;99.90;;;;;;5079199;28;20048;-79
2022/09/23 02:52:18;;;;;;;5.07;2.05;;;13.10;99.90;;;;;;5101369;28;20050;-79
2022/09/23 02:54:45;;;;;;;5.50;2.20;;;13.10;99.90;;;;;;5094382;28;20044;-79
2022/09/23 02:57:13;;;;;;;4.97;2.03;;;13.10;99.90;;;;;;5088925;28;20044;-79
2022/09/23 02:59:40;;;;;;;5.13;1.90;;;13.10;99.90;;;;;;5091662;28;20044;-80
2022/09/23 03:02:19;;;;;;;4.22;1.85;;;13.10;99.90;;;;;;5077470;28;20048;-80
2022/09/23 03:04:53;;;;;;;5.38;1.80;;;13.10;99.90;;;;;;5079292;28;20052;-80
2022/09/23 03:07:23;;;;;;;5.22;2.10;;;13.10;99.90;;;;;;5055265;28;20416;-80
2022/09/23 03:09:54;;;;;;;4.65;1.80;;;13.10;99.90;;;;;;5085042;28;20056;-80
2022/09/23 03:12:34;;;;;;;4.93;2.00;;;13.10;99.90;;;;;;5089673;28;20039;-80
2022/09/23 03:15:09;;;;;;;5.10;2.10;;;13.10;99.90;;;;;;5067421;28;20052;-80
2022/09/23 03:17:40;;;;;;;5.88;2.17;;;13.10;99.90;;;;;;5091932;28;20051;-80
2022/09/23 03:20:13;;;;;;;3.55;1.67;;;13.00;99.90;;;;;;5082760;28;20082;-80
2022/09/23 03:22:43;;;;;;;5.85;2.20;;;13.00;99.90;;;;;;5068239;28;20449;-80
2022/09/23 03:25:15;;;;;;;6.60;2.45;;;13.00;99.90;;;;;;5065188;28;20063;-80
2022/09/23 03:27:43;;;;;;;3.78;1.90;;;13.00;99.90;;;;;;5092131;28;20048;-80
2022/09/23 03:30:11;;;;;;;4.13;2.15;;;13.00;99.90;;;;;;5092547;28;20055;-80
2022/09/23 03:32:40;;;;;;;6.88;2.45;;;12.90;99.90;;;;;;5091858;28;20066;-80
2022/09/23 03:35:09;;;;;;;5.50;2.33;;;12.90;99.90;;;;;;5083329;28;20397;-80
2022/09/23 03:37:39;;;;;;;4.65;2.10;;;12.80;99.90;;;;;;5082984;28;20480;-80
2022/09/23 03:40:10;;;;;;;5.25;2.00;;;12.80;99.90;;;;;;5074029;28;20561;-81
2022/09/23 03:42:37;;;;;;;3.72;2.25;;;12.80;99.90;;;;;;5091505;28;20044;-80
2022/09/23 03:45:08;;;;;;;5.43;2.15;;;12.80;99.90;;;;;;5083005;28;20040;-80
2022/09/23 03:47:38;;;;;;;5.32;2.03;;;12.80;99.90;;;;;;5092494;28;20032;-80
2022/09/23 03:50:06;;;;;;;7.00;2.17;;;12.80;99.90;;;;;;5072014;28;20044;-80
2022/09/23 03:52:34;;;;;;;5.65;2.15;;;12.80;99.90;;;;;;5082212;28;20750;-80
2022/09/23 03:55:01;;;;;;;4.50;2.28;;;12.80;99.90;;;;;;5082765;28;20043;-80
2022/09/23 03:57:28;;;;;;;6.65;2.05;;;12.80;99.90;;;;;;5092051;28;20089;-80
2022/09/23 03:59:55;;;;;;;4.53;2.03;;;12.80;99.90;;;;;;5083050;28;20044;-80
2022/09/23 04:02:21;;;;;;;4.95;2.00;;;12.80;99.90;;;;;;5091068;28;20602;-80
2022/09/23 04:04:48;;;;;;;6.57;1.90;;;12.80;99.90;;;;;;5082668;28;20489;-80
2022/09/23 04:07:16;;;;;;;5.93;1.80;;;12.80;99.90;;;;;;5091528;28;20036;-80
2022/09/23 04:09:44;;;;;;;5.40;1.92;;;12.80;99.90;;;;;;5091818;28;20044;-80
2022/09/23 04:12:13;;;;;;;4.70;1.77;;;12.90;99.90;;;;;;5081376;28;20048;-81
2022/09/23 04:14:40;;;;;;;5.05;2.05;;;13.00;99.90;;;;;;5080232;28;20040;-80
2022/09/23 04:17:07;;;;;;;5.32;1.98;;;12.90;99.90;;;;;;5089965;28;20047;-80
2022/09/23 04:19:34;;;;;;;4.32;1.90;;;12.90;99.90;;;;;;5091678;28;20047;-82
2022/09/23 04:22:01;;;;;;;5.25;2.30;;;12.90;99.90;;;;;;5091522;28;20051;-82
2022/09/23 04:24:28;;;;;;;5.45;2.20;;;12.90;99.90;;;;;;5080711;28;20040;-82
2022/09/23 04:26:57;;;;;;;4.47;2.03;;;12.90;99.90;;;;;;5091300;28;20863;-82
2022/09/23 04:29:25;;;;;;;4.60;1.80;;;12.90;99.90;;;;;;5082093;28;20438;-82
2022/09/23 04:31:52;;;;;;;5.13;2.05;;;12.90;99.90;;;;;;5091314;28;20645;-82
2022/09/23 04:34:19;;;;;;;5.47;2.10;;;12.90;99.90;;;;;;5082404;28;20046;-81
2022/09/23 04:36:47;;;;;;;5.05;2.10;;;12.90;99.90;;;;;;5091112;28;20492;-81
2022/09/23 04:39:15;;;;;;;5.38;1.88;;;12.90;99.90;;;;;;5091084;28;20052;-81
2022/09/23 04:41:42;;;;;;;3.80;2.08;;;12.90;99.90;;;;;;5083806;28;20500;-80
2022/09/23 04:44:11;;;;;;;4.13;1.90;;;12.90;99.90;;;;;;5080372;28;20052;-82
2022/09/23 04:46:38;;;;;;;4.18;2.03;;;12.80;99.90;;;;;;5076688;28;20051;-83
2022/09/23 04:49:06;;;;;;;6.30;1.90;;;12.80;99.90;;;;;;5087424;28;20404;-83
2022/09/23 04:51:33;;;;;;;4.97;2.22;;;12.70;99.90;;;;;;5090047;28;20123;-83
2022/09/23 04:54:00;;;;;;;4.60;2.35;;;12.80;99.90;;;;;;5081643;28;20047;-83
2022/09/23 04:56:29;;;;;;;3.47;1.80;;;12.70;99.90;;;;;;5090164;28;20481;-80
2022/09/23 04:58:57;;;;;;;4.47;2.08;;;12.60;99.90;;;;;;5090905;28;20124;-80
2022/09/23 05:01:27;;;;;;;5.45;2.20;;;12.60;99.90;;;;;;5090722;28;20381;-81
2022/09/23 05:03:56;;;;;;;4.50;2.05;;;12.60;99.90;;;;;;5081780;28;20041;-80
2022/09/23 05:06:23;;;;;;;5.05;2.20;;;12.60;99.90;;;;;;5082081;28;20044;-81
2022/09/23 05:08:52;;;;;;;6.47;2.20;;;12.50;99.90;;;;;;5090550;28;20040;-81
2022/09/23 05:11:19;;;;;;;6.45;2.13;;;12.50;99.90;;;;;;5090436;28;20059;-80
2022/09/23 05:13:47;;;;;;;5.55;2.35;;;12.50;99.90;;;;;;5082083;28;20046;-80
2022/09/23 05:16:14;;;;;;;5.10;2.53;;;12.50;99.90;;;;;;5088656;28;20047;-80
2022/09/23 05:18:44;;;;;;;4.57;1.92;;;12.40;99.90;;;;;;5088715;28;20036;-80
2022/09/23 05:21:11;;;;;;;4.75;2.00;;;12.40;99.90;;;;;;5086536;28;20398;-80
2022/09/23 05:23:38;;;;;;;3.85;2.08;;;12.40;99.90;;;;;;5077783;28;20043;-81
2022/09/23 05:26:07;;;;;;;4.80;2.30;;;12.40;99.90;;;;;;5087174;28;20067;-81
2022/09/23 05:28:36;;;;;;;6.78;2.17;;;12.40;99.90;;;;;;5089772;28;20054;-81
2022/09/23 05:31:04;;;;;;;4.72;2.38;;;12.40;99.90;;;;;;5087709;28;20047;-82
2022/09/23 05:33:31;;;;;;;7.03;2.05;;;12.40;99.90;;;;;;5075781;28;20512;-81
2022/09/23 05:35:59;;;;;;;5.70;2.08;;;12.40;99.90;;;;;;5083974;28;20040;-82
2022/09/23 05:38:28;;;;;;;5.40;2.08;;;12.40;99.90;;;;;;5087816;28;20049;-82
2022/09/23 05:40:58;;;;;;;4.80;2.33;;;12.60;99.90;;;;;;5079762;28;20419;-81
2022/09/23 05:43:26;;;;;;;7.05;2.50;;;12.30;99.90;;;;;;5083250;28;20040;-82
2022/09/23 05:45:54;;;;;;;7.00;2.35;;;12.30;99.90;;;;;;5078900;28;20052;-81
2022/09/23 05:48:21;;;;;;;5.70;2.10;;;12.30;99.90;;;;;;5074371;28;20118;-81
2022/09/23 05:50:51;;;;;;;6.00;2.75;;;12.20;99.90;;;;;;5081768;28;20044;-84
2022/09/23 05:53:20;;;;;;;9.00;2.60;;;12.20;99.90;;;;;;5085149;28;20041;-83
2022/09/23 05:55:46;;;;;;;8.32;2.97;;;12.20;99.90;;;;;;5065726;28;20362;-84
2022/09/23 05:58:15;;;;;;;6.93;3.17;;;12.20;99.90;;;;;;5088585;28;20127;-84
2022/09/23 06:00:43;;;;;;;5.45;3.10;;;12.20;99.90;;;;;;5089557;28;20057;-85
2022/09/23 06:03:12;;;;;;;7.22;3.40;;;12.20;99.90;;;;;;5086835;28;20044;-85
2022/09/23 06:05:39;;;;;;;7.10;3.72;;;12.20;99.90;;;;;;5080305;28;20492;-85
2022/09/23 06:08:06;;;;;;;7.28;3.17;;;12.20;99.90;;;;;;5087414;28;20075;-84
2022/09/23 06:10:37;;;;;;;7.18;3.10;;;12.20;99.90;;;;;;5083740;28;20531;-88
2022/09/23 06:13:04;;;;;;;5.80;3.42;;;12.20;99.90;;;;;;5084778;28;20123;-90
2022/09/23 06:15:32;;;;;;;8.35;3.60;;;12.20;99.90;;;;;;5064105;28;20054;-90
2022/09/23 06:17:59;;;;;;;6.70;3.13;;;12.20;99.90;;;;;;5071147;28;20105;-89
2022/09/23 06:20:26;;;;;;;10.55;3.53;;;12.10;99.90;;;;;;5069950;28;20040;-89
2022/09/23 06:22:53;;;;;;;7.28;3.33;;;12.20;99.90;;;;;;5084981;28;20052;-89
2022/09/23 06:25:21;;;;;;;11.35;3.90;;;12.10;99.90;;;;;;5069955;28;20603;-89
2022/09/23 06:27:54;;;;;;;11.70;3.67;;;12.20;99.90;;;;;;5070722;28;20040;-88
2022/09/23 06:30:22;;;;;;;10.73;3.53;;;12.20;99.90;;;;;;5070690;28;20128;-90
2022/09/23 06:32:50;;;;;;;9.15;3.55;;;12.20;99.90;;;;;;5061414;28;20143;-88
2022/09/23 06:35:17;;;;;;;9.40;3.60;;;12.20;99.90;;;;;;5061836;28;20106;-89
2022/09/23 06:37:44;;;;;;;8.60;3.40;;;12.30;99.90;;;;;;5088881;28;20048;-89
2022/09/23 06:40:13;;;;;;;11.43;3.67;;;12.30;99.90;;;;;;5070382;28;20131;-89
2022/09/23 06:42:40;;;;;;;10.88;3.65;;;12.30;99.90;;;;;;5070238;28;20040;-89
2022/09/23 06:45:14;;;;;;;10.32;4.05;;;12.40;99.90;;;;;;5079752;28;20407;-90
2022/09/23 06:47:41;;;;;;;7.95;4.20;;;12.40;99.90;;;;;;5082315;28;20123;-90
2022/09/23 06:50:11;;;;;;;11.20;3.88;;;12.50;99.90;;;;;;5065907;28;20068;-89
2022/09/23 06:52:38;;;;;;;8.45;3.30;;;12.60;99.90;;;;;;5092577;28;20129;-88
2022/09/23 06:55:06;;;;;;;6.68;3.50;;;12.60;99.90;;;;;;5083909;28;20058;-89
2022/09/23 06:57:34;;;;;;;7.32;3.42;;;12.70;99.90;;;;;;5092353;28;20338;-88
2022/09/23 07:00:02;;;;;;;12.40;3.90;;;12.80;99.90;;;;;;5093130;28;20043;-88
2022/09/23 07:02:30;;;;;;;7.68;3.28;;;12.90;99.90;;;;;;5073704;28;20420;-89
2022/09/23 07:04:57;;;;;;;8.80;3.42;;;12.90;99.90;;;;;;5081758;28;20419;-89
2022/09/23 07:07:25;;;;;;;10.88;3.53;;;13.10;99.90;;;;;;5083457;28;20044;-89
2022/09/23 07:09:52;;;;;;;9.75;3.30;;;13.10;99.90;;;;;;5090705;28;20047;-89
2022/09/23 07:12:19;;;;;;;7.13;2.63;;;13.30;99.90;;;;;;5065307;28;20044;-89
2022/09/23 07:14:46;;;;;;;7.20;2.83;;;13.40;99.90;;;;;;5082271;28;20051;-88
2022/09/23 07:17:13;;;;;;;6.25;2.45;;;13.50;99.90;;;;;;5073452;28;20043;-89
2022/09/23 07:19:42;;;;;;;8.52;2.92;;;13.50;99.90;;;;;;5092395;28;20044;-89
2022/09/23 07:22:09;;;;;;;5.18;2.45;;;13.60;99.90;;;;;;5092582;28;20121;-88
2022/09/23 07:24:36;;;;;;;8.63;2.15;;;13.70;99.90;;;;;;5072623;28;20040;-89
2022/09/23 07:27:04;;;;;;;7.65;2.50;;;13.80;99.90;;;;;;5074092;28;20044;-89
2022/09/23 07:29:31;;;;;;;4.22;2.40;;;13.80;99.90;;;;;;5074181;28;20125;-89
2022/09/23 07:31:58;;;;;;;9.05;2.42;;;13.90;99.90;;;;;;5073866;28;20087;-89
2022/09/23 07:34:25;;;;;;;6.63;2.22;;;13.90;99.90;;;;;;5089342;28;20561;-88
2022/09/23 07:36:53;;;;;;;6.47;2.20;;;14.00;99.90;;;;;;5092257;28;20055;-89
2022/09/23 07:39:20;;;;;;;8.27;1.98;;;14.10;99.90;;;;;;5092023;28;20052;-89
2022/09/23 07:41:48;;;;;;;4.53;2.35;;;14.20;99.90;;;;;;5083584;28;20045;-90
2022/09/23 07:44:15;;;;;;;4.28;1.98;;;14.20;99.90;;;;;;5069419;28;20524;-88
2022/09/23 07:46:44;;;;;;;4.60;2.40;;;14.20;99.90;;;;;;5081616;28;20123;-88
2022/09/23 07:49:11;;;;;;;5.85;2.38;;;14.30;99.90;;;;;;5084900;28;20036;-87
2022/09/23 07:51:39;;;;;;;8.50;2.42;;;14.40;99.90;;;;;;5091926;28;20048;-90
2022/09/23 07:54:10;;;;;;;8.35;2.17;;;14.40;99.90;;;;;;5091670;28;20117;-88
2022/09/23 07:56:37;;;;;;;5.93;2.17;;;14.50;99.90;;;;;;5090852;28;20120;-88
2022/09/23 07:59:07;;;;;;;6.95;2.30;;;14.50;99.90;;;;;;5080514;28;20115;-87
2022/09/23 08:01:35;;;;;;;4.45;1.92;;;14.60;99.90;;;;;;5090725;28;20601;-88
2022/09/23 08:04:04;;;;;;;6.13;2.30;;;14.60;99.90;;;;;;5095093;28;20429;-87
2022/09/23 08:06:32;;;;;;;6.30;2.00;;;14.70;99.90;;;;;;5084065;28;20039;-88
2022/09/23 08:09:00;;;;;;;5.60;2.28;;;14.70;99.90;;;;;;5082505;28;20036;-87
2022/09/23 08:11:28;;;;;;;4.25;2.10;;;14.80;99.90;;;;;;5073079;28;20044;-86
2022/09/23 08:13:58;;;;;;;6.07;2.15;;;14.80;99.90;;;;;;5091238;28;20073;-87
2022/09/23 08:16:25;;;;;;;5.25;1.98;;;14.80;99.90;;;;;;5085547;28;20591;-87
2022/09/23 08:18:51;;;;;;;5.70;2.10;;;14.90;99.90;;;;;;5060842;28;20048;-87
2022/09/23 08:21:20;;;;;;;7.78;2.13;;;14.90;99.90;;;;;;5063571;28;20052;-87
2022/09/23 08:23:47;;;;;;;5.35;2.30;;;14.90;99.90;;;;;;5091250;28;20127;-87
2022/09/23 08:26:14;;;;;;;4.53;2.10;;;15.00;99.90;;;;;;5089722;28;20048;-89
2022/09/23 08:28:44;;;;;;;4.82;2.10;;;15.00;99.90;;;;;;5088395;28;20123;-89
2022/09/23 08:31:12;;;;;;;4.97;1.92;;;15.00;99.90;;;;;;5097089;28;20043;-88
2022/09/23 08:33:39;;;;;;;5.47;2.00;;;15.00;99.90;;;;;;5094442;28;20055;-88
2022/09/23 08:36:07;;;;;;;5.45;2.20;;;15.00;99.90;;;;;;5091036;28;20070;-89
2022/09/23 08:38:34;;;;;;;4.70;2.60;;;15.10;99.90;;;;;;5091107;28;20032;-88
2022/09/23 08:41:07;;;;;;;4.60;2.15;;;15.10;99.90;;;;;;5082592;28;20523;-88
2022/09/23 08:43:36;;;;;;;4.65;2.30;;;15.10;99.90;;;;;;5079356;22;20124;-88
2022/09/23 08:46:06;;;;;;;6.10;2.10;;;15.20;99.90;;;;;;5049932;28;20041;-88
2022/09/23 08:48:35;;;;;;;5.07;2.10;;;15.20;99.90;;;;;;5049408;28;20051;-88
2022/09/23 08:51:05;;;;;;;6.82;2.50;;;15.20;99.90;;;;;;5065801;28;20044;-88
2022/09/23 08:53:34;;;;;;;7.45;2.30;;;15.30;99.90;;;;;;5033181;28;20053;-88
2022/09/23 08:56:04;;;;;;;5.93;2.22;;;15.30;99.90;;;;;;5036846;28;20053;-88
2022/09/23 08:58:42;;;;;;;6.85;2.40;;;15.30;99.90;;;;;;5040447;28;20041;-89
2022/09/23 09:01:18;;;;;;;6.18;2.40;;;15.30;99.90;;;;;;5029707;28;20479;-88
2022/09/23 09:03:47;;;;;;;8.00;2.25;;;15.40;99.90;;;;;;5029260;28;20037;-88
2022/09/23 09:06:18;;;;;;;5.93;2.17;;;15.40;99.90;;;;;;5027509;28;20055;-88
2022/09/23 09:08:51;;;;;;;4.63;2.20;;;15.40;99.90;;;;;;5029519;28;20092;-88
2022/09/23 09:11:19;;;;;;;4.95;2.00;;;15.50;99.90;;;;;;5012226;28;20147;-89
2022/09/23 09:13:51;;;;;;;5.43;2.15;;;15.50;99.90;;;;;;5011657;28;20049;-89
2022/09/23 09:16:43;;;;;;;6.05;2.30;;;15.50;99.90;;;;;;5018553;28;20072;-90
2022/09/23 09:19:15;;;;;;;4.25;2.30;;;15.50;99.90;;;;;;5021209;28;20499;-90
2022/09/23 09:21:45;;;;;;;5.32;2.17;;;15.60;99.90;;;;;;5030309;28;20053;-90
2022/09/23 09:24:17;;;;;;;6.50;2.30;;;15.60;99.90;;;;;;5031104;28;20498;-90
2022/09/23 09:26:44;;;;;;;5.38;1.98;;;15.60;99.90;;;;;;5043324;28;20128;-90
2022/09/23 09:29:14;;;;;;;4.63;2.13;;;15.70;99.90;;;;;;5040234;28;20060;-89
2022/09/23 09:31:44;;;;;;;4.75;1.90;;;15.70;99.90;;;;;;5048156;28;20047;-89
2022/09/23 09:34:19;;;;;;;8.05;2.00;;;15.70;99.90;;;;;;5040558;28;20122;-89
2022/09/23 09:36:49;;;;;;;5.28;2.15;;;15.70;99.90;;;;;;5041486;28;20041;-89
2022/09/23 09:39:16;;;;;;;6.57;2.33;;;15.80;99.90;;;;;;5036107;28;20164;-89
2022/09/23 09:41:47;;;;;;;6.72;2.30;;;15.90;99.90;;;;;;5023467;28;20099;-90
2022/09/23 09:44:23;;;;;;;8.60;2.45;;;15.80;99.90;;;;;;5034752;28;20049;-89
2022/09/23 09:47:00;;;;;;;5.65;2.22;;;15.80;99.90;;;;;;5049725;28;20056;-89
2022/09/23 09:49:32;;;;;;;7.10;2.38;;;15.90;99.90;;;;;;5036762;28;20473;-89
2022/09/23 09:52:21;;;;;;;6.22;2.58;;;16.00;99.90;;;;;;5042643;28;20052;-89
2022/09/23 09:54:49;;;;;;;4.95;2.47;;;16.00;99.30;;;;;;5022220;28;20060;-89
2022/09/23 09:57:28;;;;;;;6.13;2.25;;;16.00;98.60;;;;;;5019770;28;20060;-90
2022/09/23 09:59:55;;;;;;;5.70;2.60;;;16.10;98.90;;;;;;5008563;28;21130;-89
2022/09/23 10:02:27;;;;;;;5.97;2.10;;;16.10;98.80;;;;;;5033927;28;20127;-89
2022/09/23 10:04:59;;;;;;;4.95;2.20;;;16.10;98.40;;;;;;5042180;28;20512;-90
2022/09/23 10:07:29;;;;;;;7.38;2.22;;;16.20;99.10;;;;;;5012666;28;20053;-90
2022/09/23 10:09:56;;;;;;;5.00;2.20;;;16.20;98.40;;;;;;5018617;28;20045;-89
2022/09/23 10:12:24;;;;;;;5.15;2.05;;;16.40;99.30;;;;;;5020711;28;20127;-88
2022/09/23 10:14:52;;;;;;;6.93;2.58;;;16.30;99.90;;;;;;4999562;28;20046;-89
2022/09/23 10:17:21;;;;;;;4.75;2.30;;;16.30;99.20;;;;;;4998327;28;20092;-91
2022/09/23 10:19:56;;;;;;;6.40;2.60;;;16.30;98.70;;;;;;5031103;28;20045;-92
2022/09/23 10:22:27;;;;;;;5.68;2.60;;;16.40;98.40;;;;;;5026963;28;20057;-89
2022/09/23 10:24:55;;;;;;;9.85;2.72;;;16.40;96.00;;;;;;5008203;28;20045;-91
2022/09/23 10:27:30;;;;;;;5.18;2.35;;;16.50;96.00;;;;;;5031654;28;20048;-92
2022/09/23 10:29:59;;;;;;;5.78;2.42;;;16.50;96.40;;;;;;5009988;28;20045;-92
2022/09/23 10:32:29;;;;;;;4.45;2.30;;;16.50;97.60;;;;;;5007685;28;20034;-91
2022/09/23 10:35:02;;;;;;;5.60;2.25;;;16.50;98.10;;;;;;5010860;28;20053;-91
2022/09/23 10:37:38;;;;;;;7.03;2.50;;;16.60;98.30;;;;;;5022418;28;20049;-80
2022/09/23 10:49:13;;;;;;;5.72;2.10;;;16.70;96.50;;;;;;5007670;28;20053;-91
2022/09/23 10:51:46;;;;;;;5.63;2.17;;;16.70;97.40;;;;;;5001997;28;20053;-92
2022/09/23 10:54:19;;;;;;;5.95;1.70;;;16.70;96.10;;;;;;5014067;28;20049;-91
2022/09/23 10:56:48;;;;;;;5.03;2.10;;;16.70;95.40;;;;;;5007530;28;20053;-90
2022/09/23 10:59:40;;;;;;;4.03;2.00;;;16.70;97.10;;;;;;5008303;28;20128;-89
2022/09/23 11:02:27;;;;;;;5.18;1.88;;;16.80;96.80;;;;;;5004142;28;20053;-90
2022/09/23 11:05:18;;;;;;;4.50;2.10;;;16.80;96.50;;;;;;5028425;28;20057;-93
2022/09/23 11:07:54;;;;;;;3.53;1.87;;;16.80;96.10;;;;;;5020649;28;20489;-92
2022/09/23 11:10:53;;;;;;;5.40;2.28;;;16.90;96.70;;;;;;5016064;28;20041;-92
2022/09/23 11:13:33;;;;;;;5.07;2.13;;;16.90;97.00;;;;;;4996981;28;20059;-88
2022/09/23 11:16:09;;;;;;;5.85;2.53;;;16.90;97.00;;;;;;5017008;28;20493;-87
2022/09/23 11:18:48;;;;;;;5.97;1.92;;;16.90;97.30;;;;;;5027297;28;20127;-87
2022/09/23 11:21:48;;;;;;;4.05;2.10;;;16.90;97.70;;;;;;5040236;28;20493;-87
2022/09/23 11:24:30;;;;;;;5.65;2.03;;;17.00;97.70;;;;;;5038184;28;20053;-88
2022/09/23 11:27:05;;;;;;;5.15;1.98;;;17.00;97.80;;;;;;5020402;28;20075;-88
2022/09/23 11:29:48;;;;;;;5.13;2.03;;;17.00;95.80;;;;;;5029031;28;20131;-88
2022/09/23 11:32:32;;;;;;;4.50;1.90;;;17.10;95.10;;;;;;5038374;28;20135;-90
2022/09/23 11:35:14;;;;;;;6.07;2.33;;;17.10;95.50;;;;;;5049613;28;20140;-85
2022/09/23 11:37:43;;;;;;;6.07;2.40;;;17.10;95.90;;;;;;5021978;28;20049;-84
2022/09/23 11:40:17;;;;;;;4.57;1.80;;;17.20;95.20;;;;;;5031279;28;20041;-86
2022/09/23 11:42:52;;;;;;;6.45;2.08;;;17.20;94.00;;;;;;5028070;28;20065;-90
2022/09/23 11:45:23;;;;;;;7.55;2.17;;;17.20;94.90;;;;;;5013301;28;20049;-90
2022/09/23 11:47:54;;;;;;;6.03;1.77;;;17.30;95.20;;;;;;5008466;28;20426;-85
2022/09/23 11:50:26;;;;;;;5.18;1.70;;;17.20;94.70;;;;;;5010987;28;20091;-85
2022/09/23 11:52:57;;;;;;;3.75;1.75;;;17.30;94.90;;;;;;5010191;28;20057;-85
2022/09/23 11:55:31;;;;;;;5.65;2.17;;;17.30;94.50;;;;;;4996003;28;20107;-85
2022/09/23 11:58:02;;;;;;;3.97;2.03;;;17.30;93.90;;;;;;5023765;28;20042;-85
2022/09/23 12:00:33;;;;;;;8.57;2.03;;;17.30;93.50;;;;;;5026735;28;20041;-84
2022/09/23 12:03:05;;;;;;;4.45;1.80;;;17.40;94.30;;;;;;5022366;28;20437;-86
2022/09/23 12:05:35;;;;;;;4.30;1.80;;;17.40;93.70;;;;;;5021144;28;20041;-86
2022/09/23 12:08:07;;;;;;;4.00;1.40;;;17.40;93.40;;;;;;5021537;28;20052;-90
2022/09/23 12:10:44;;;;;;;4.50;1.80;;;17.40;94.90;;;;;;5022527;28;20046;-83
2022/09/23 12:13:17;;;;;;;5.63;2.20;;;17.40;95.20;;;;;;5024794;28;20071;-84
2022/09/23 12:15:56;;;;;;;4.68;1.90;;;17.40;96.70;;;;;;5018806;28;20639;-86
2022/09/23 12:18:46;;;;;;;3.75;1.73;;;17.40;96.80;;;;;;5023212;28;20103;-84
2022/09/23 12:21:36;;;;;;;4.25;1.98;;;17.50;95.40;;;;;;5025521;28;20052;-85
2022/09/23 12:24:18;;;;;;;5.30;2.00;;;17.50;94.80;;;;;;5027653;28;20525;-89
2022/09/23 12:26:50;;;;;;;4.90;2.08;;;17.50;94.50;;;;;;5031053;28;20111;-84
2022/09/23 12:29:17;;;;;;;6.60;2.30;;;17.50;95.70;;;;;;5037532;28;20047;-82
2022/09/23 12:31:45;;;;;;;4.95;2.20;;;17.50;95.00;;;;;;5012648;28;20045;-88
2022/09/23 12:34:22;;;;;;;3.35;1.77;;;17.40;94.00;;;;;;5040506;28;20128;-88
2022/09/23 12:36:49;;;;;;;5.25;2.97;;;17.50;94.00;;;;;;5044297;28;20055;-88
2022/09/23 12:39:17;;;;;;;5.65;1.70;;;17.50;92.40;;;;;;5029301;28;20033;-88
2022/09/23 12:41:49;;;;;;;6.85;2.30;;;17.50;94.20;;;;;;5029915;28;20638;-88
2022/09/23 12:44:31;;;;;;;7.47;2.05;;;17.50;93.90;;;;;;5014322;28;20057;-88
2022/09/23 12:47:30;;;;;;;4.43;1.77;;;17.50;94.50;;;;;;5030536;28;20045;-88
2022/09/23 12:49:57;;;;;;;6.50;1.98;;;17.60;95.60;;;;;;5027496;28;20731;-87
2022/09/23 12:52:26;;;;;;;4.88;1.92;;;17.60;95.00;;;;;;5041095;28;20124;-88
2022/09/23 12:54:56;;;;;;;10.70;2.20;;;17.60;97.30;;;;;;5031943;28;20052;-87
2022/09/23 12:57:43;;;;;;;4.93;2.40;;;17.60;97.40;;;;;;5025827;28;20041;-88
2022/09/23 13:00:24;;;;;;;4.20;1.90;;;17.60;97.80;;;;;;5005520;28;20046;-88
2022/09/23 13:08:33;;;;;;;4.10;1.95;;;17.50;99.10;;;;;;5027803;28;20045;-89
2022/09/23 13:11:01;;;;;;;5.75;2.00;;;17.50;96.80;;;;;;5025450;28;20041;-88
2022/09/23 13:13:34;;;;;;;5.03;2.17;;;17.50;97.60;;;;;;5028487;28;20052;-89
2022/09/23 13:16:11;;;;;;;4.60;2.13;;;17.50;96.80;;;;;;5021286;28;20051;-87
2022/09/23 13:18:56;;;;;;;9.18;2.60;;;17.50;96.40;;;;;;5022398;28;20458;-87